Time;durP1;ratioP1;P1;durP2;ratioP2;P2;SDS_P1;SDS_P2;PMS_P1;PMS_P2;Temp;Humidity;BMP_temperature;BMP_pressure;BME280_temperature;BME280_humidity;BME280_pressure;Samples;Min_cycle;Max_cycle;Signal;HPM_P1;HPM_P2
2021/08/04 00:27:38;;;;;;;3.17;1.70;;;;;;;18.08;75.87;95537.22;4887063;29;20231;-89
2021/08/04 00:31:04;;;;;;;1.80;1.70;;;;;;;18.12;76.36;95538.34;4891915;29;20206;-89
2021/08/04 00:44:30;;;;;;;2.08;1.80;;;;;;;17.94;77.18;95547.03;4887820;29;20229;-90
2021/08/04 02:25:47;;;;;;;;;;;;;;;;;;;;;
2021/08/04 03:00:54;;;;;;;;;;;;;;;;;;;;;
2021/08/04 03:13:58;;;;;;;2.88;2.03;;;;;;;17.39;78.71;95508.09;4933695;28;20732;-90
2021/08/04 03:28:57;;;;;;;2.65;2.10;;;;;;;17.46;78.42;95506.22;5069435;22;20216;-89
2021/08/04 03:31:49;;;;;;;3.65;2.20;;;;;;;17.40;79.47;95504.50;5085992;28;20207;-89
2021/08/04 03:52:11;;;;;;;2.75;2.55;;;;;;;17.36;81.03;95505.13;4958342;28;20595;-89
2021/08/04 03:55:19;;;;;;;2.38;2.10;;;;;;;17.40;79.60;95488.88;5077357;28;20204;-89
2021/08/04 03:58:38;;;;;;;;;;;;;;;;;;;;;
2021/08/04 04:01:57;;;;;;;2.40;2.20;;;;;;;17.33;80.21;95484.75;5089013;28;20340;-89
2021/08/04 04:36:18;;;;;;;2.92;2.60;;;;;;;17.21;80.18;95492.53;5025015;28;20278;-89
2021/08/04 04:39:39;;;;;;;;;;;;;;;;;;;;;
2021/08/04 04:42:48;;;;;;;2.42;2.22;;;;;;;17.23;80.02;95491.28;5057522;28;20230;-89
2021/08/04 04:45:34;;;;;;;3.42;2.30;;;;;;;17.31;79.95;95497.22;5064337;28;20189;-89
2021/08/04 04:51:37;;;;;;;;;;;;;;;;;;;;;
2021/08/04 04:54:30;;;;;;;2.50;2.30;;;;;;;17.35;82.95;95503.56;4933170;29;20659;-90
2021/08/04 04:57:21;;;;;;;;;;;;;;;;;;;;;
2021/08/04 04:59:51;;;;;;;16.20;14.50;;;;;;;17.47;80.61;95497.41;5051914;28;20615;-89
2021/08/04 05:03:01;;;;;;;13.27;11.90;;;;;;;17.44;81.02;95499.63;5052351;28;20209;-89
2021/08/04 05:06:08;;;;;;;6.53;2.60;;;;;;;17.44;80.41;95499.63;5050823;28;20312;-89
2021/08/04 05:12:12;;;;;;;2.45;2.25;;;;;;;17.46;80.54;95498.41;4989061;28;20212;-89
2021/08/04 05:18:29;;;;;;;2.50;2.30;;;;;;;17.42;80.11;95510.28;4999465;28;20202;-90
2021/08/04 05:21:09;;;;;;;2.75;1.88;;;;;;;17.45;80.90;95514.25;5058119;28;20304;-90
2021/08/04 05:23:42;;;;;;;2.63;2.40;;;;;;;17.50;79.71;95509.19;5070558;28;20189;-89
2021/08/04 05:26:33;;;;;;;2.50;2.30;;;;;;;17.54;79.29;95512.91;5071240;28;20244;-88
2021/08/04 05:29:28;;;;;;;2.42;2.22;;;;;;;17.50;79.52;95517.78;5071693;28;20207;-90
2021/08/04 05:32:32;;;;;;;2.50;2.30;;;;;;;17.53;79.48;95514.72;5072127;28;20288;-89
2021/08/04 05:45:51;;;;;;;1.95;1.85;;;;;;;17.58;78.67;95509.66;4990055;28;20230;-89
2021/08/04 05:49:22;;;;;;;2.00;1.90;;;;;;;17.57;79.24;95507.25;4988704;28;20203;-88
2021/08/04 07:41:45;;;;;;;1.23;1.15;;;;;;;18.53;67.39;95498.34;4910663;29;20305;-88
2021/08/04 08:07:39;;;;;;;1.10;1.00;;;;;;;19.06;63.81;95494.78;4937884;28;20257;-90
2021/08/04 08:10:30;;;;;;;1.05;1.05;;;;;;;19.03;64.50;95492.66;5029825;28;20245;-90
2021/08/04 08:13:47;;;;;;;1.30;1.20;;;;;;;19.05;64.01;95488.00;5029577;28;20194;-87
2021/08/04 08:16:59;;;;;;;1.20;1.10;;;;;;;18.95;66.51;95494.59;5092354;28;20278;-90
2021/08/04 08:39:31;;;;;;;1.60;1.25;;;;;;;19.27;65.48;95494.94;4705491;26;20217;-90
2021/08/04 08:42:01;;;;;;;1.38;1.27;;;;;;;19.35;65.24;95492.97;5032048;28;20206;-89
2021/08/04 08:44:53;;;;;;;;;;;;;;;;;;;;;
2021/08/04 08:47:46;;;;;;;1.20;1.10;;;;;;;19.47;63.81;95488.50;5032454;28;20230;-89
2021/08/04 08:50:25;;;;;;;2.55;1.10;;;;;;;19.43;62.62;95493.41;5026691;28;20286;-89
2021/08/04 08:56:06;;;;;;;1.33;1.20;;;;;;;19.38;62.28;95500.34;5027155;28;20729;-88
2021/08/04 08:58:45;;;;;;;1.30;1.20;;;;;;;19.41;62.78;95484.22;5032032;28;20229;-88
2021/08/04 09:01:14;;;;;;;2.08;1.20;;;;;;;19.30;62.83;95478.81;5031352;28;20229;-88
2021/08/04 09:03:46;;;;;;;1.30;1.20;;;;;;;19.39;61.89;95481.84;5032454;28;20692;-88
2021/08/04 09:06:59;;;;;;;1.30;1.20;;;;;;;19.41;61.04;95471.16;5023367;28;20225;-88
2021/08/04 09:09:28;;;;;;;1.13;1.02;;;;;;;19.41;60.49;95471.97;5032094;28;20213;-89
2021/08/04 09:12:29;;;;;;;1.20;1.10;;;;;;;19.34;61.04;95468.69;5031400;28;20294;-89
2021/08/04 09:25:04;;;;;;;1.15;1.05;;;;;;;19.28;61.60;95464.41;5110276;28;20241;-88
2021/08/04 09:31:55;;;;;;;;;;;;;;;;;;;;;
2021/08/04 09:34:37;;;;;;;1.20;1.10;;;;;;;19.66;60.15;95451.50;5050833;28;20363;-88
2021/08/04 09:37:16;;;;;;;1.27;1.20;;;;;;;19.70;60.46;95454.44;5111738;28;20223;-89
2021/08/04 09:39:47;;;;;;;1.67;1.20;;;;;;;19.77;60.50;95452.50;5112843;28;20203;-88
2021/08/04 09:42:19;;;;;;;1.20;1.10;;;;;;;19.87;59.64;95451.84;5111940;28;20187;-89
2021/08/04 09:48:41;;;;;;;1.30;1.20;;;;;;;19.82;57.40;95451.78;5109355;28;20203;-88
2021/08/04 09:54:20;;;;;;;1.30;1.20;;;;;;;19.70;57.18;95436.16;5088573;28;20196;-88
2021/08/04 09:57:00;;;;;;;1.85;1.20;;;;;;;19.62;57.75;95441.81;5070521;28;20221;-89
2021/08/04 09:59:47;;;;;;;1.23;1.13;;;;;;;19.75;58.98;95444.09;5090847;28;20200;-88
2021/08/04 10:02:58;;;;;;;1.40;1.30;;;;;;;19.81;56.78;95437.94;5112136;28;20223;-89
2021/08/04 10:44:36;;;;;;;1.55;1.30;;;;;;;19.95;58.10;95436.56;4912799;28;20202;-88
2021/08/04 10:57:45;;;;;;;1.50;1.40;;;;;;;20.05;57.42;95433.31;4930438;28;20283;-88
2021/08/04 11:04:43;;;;;;;;;;;;;;;;;;;;;
2021/08/04 11:11:15;;;;;;;3.53;1.35;;;;;;;20.01;58.41;95422.53;4835338;29;20209;-89
2021/08/04 11:14:33;;;;;;;1.52;1.40;;;;;;;19.97;59.44;95405.78;4884602;28;20203;-88
2021/08/04 11:17:05;;;;;;;1.50;1.40;;;;;;;19.96;60.86;95413.84;4996669;28;20328;-89
2021/08/04 11:26:40;;;;;;;1.30;1.20;;;;;;;20.01;57.52;95411.31;5037641;28;20213;-89
2021/08/04 11:29:23;;;;;;;1.95;1.20;;;;;;;20.03;57.88;95414.44;5049492;28;20730;-89
2021/08/04 11:35:50;;;;;;;1.98;1.63;;;;;;;20.09;58.48;95405.66;4986838;28;20644;-88
2021/08/04 11:49:59;;;;;;;;;;;;;;;;;;;;;
2021/08/04 12:13:43;;;;;;;;;;;;;;;;;;;;;
2021/08/04 12:23:05;;;;;;;1.23;1.08;;;;;;;19.95;61.49;95355.56;4947139;28;20291;-90
2021/08/04 12:26:31;;;;;;;1.30;1.20;;;;;;;20.05;61.80;95351.47;4980674;28;20896;-88
2021/08/04 12:35:25;;;;;;;1.45;1.20;;;;;;;20.06;62.05;95348.63;4985813;28;20199;-88
2021/08/04 12:38:02;;;;;;;1.10;1.10;;;;;;;20.15;61.70;95351.63;5030960;28;20632;-89
2021/08/04 12:40:35;;;;;;;0.93;0.93;;;;;;;20.21;62.22;95340.97;5032181;28;20233;-89
2021/08/04 12:46:56;;;;;;;1.83;1.20;;;;;;;20.10;64.00;95341.09;4969726;28;20692;-89
2021/08/04 12:49:28;;;;;;;1.10;1.00;;;;;;;20.08;63.18;95346.56;5032275;28;20301;-89
2021/08/04 14:22:29;;;;;;;1.90;1.50;;;;;;;19.02;80.35;95337.88;4995477;28;20249;-90
2021/08/04 14:25:49;;;;;;;;;;;;;;;;;;;;;
2021/08/04 14:29:20;;;;;;;1.73;1.63;;;;;;;19.16;80.93;95339.16;4943836;28;20211;-90
2021/08/04 14:32:53;;;;;;;;;;;;;;;;;;;;;
2021/08/04 14:36:05;;;;;;;1.70;1.60;;;;;;;19.01;81.86;95335.50;4816911;29;20260;-89
2021/08/04 14:43:08;;;;;;;2.03;1.40;;;;;;;18.91;80.52;95339.50;4885558;29;20385;-90
2021/08/04 14:49:44;;;;;;;1.60;1.50;;;;;;;18.76;83.98;95330.63;4945115;28;20240;-89
2021/08/04 14:52:51;;;;;;;1.50;1.40;;;;;;;18.93;82.68;95337.47;4887767;29;20206;-89
2021/08/04 14:56:03;;;;;;;;;;;;;;;;;;;;;
2021/08/04 15:02:35;;;;;;;2.10;1.40;;;;;;;19.20;74.92;95335.06;4983922;28;20226;-89
2021/08/04 15:12:00;;;;;;;1.40;1.30;;;;;;;18.76;73.71;95330.63;4986242;28;20257;-89
2021/08/04 15:46:24;;;;;;;1.70;1.60;;;;;;;18.43;80.63;95326.06;4998684;28;20276;-89
2021/08/04 15:49:06;;;;;;;1.60;1.50;;;;;;;18.26;79.54;95319.00;5089258;28;20565;-90
2021/08/04 15:52:03;;;;;;;1.75;1.60;;;;;;;18.28;80.17;95329.16;5088846;28;20208;-89
2021/08/04 15:54:42;;;;;;;2.72;1.60;;;;;;;18.33;80.91;95323.25;5063597;28;20274;-89
2021/08/04 16:04:41;;;;;;;2.67;1.55;;;;;;;18.43;85.18;95316.44;4942736;28;20290;-89
2021/08/04 16:33:21;;;;;;;2.90;1.80;;;;;;;18.14;85.70;95307.00;4819346;29;20241;-89
2021/08/04 16:36:03;;;;;;;1.52;1.42;;;;;;;18.18;86.64;95306.31;4835978;29;20673;-89
2021/08/04 16:38:54;;;;;;;30.50;27.38;;;;;;;18.23;88.45;95306.41;4945385;28;20605;-90
2021/08/04 16:41:54;;;;;;;6.25;4.75;;;;;;;18.22;87.16;95304.03;5028428;28;20194;-90
2021/08/04 16:44:42;;;;;;;2.30;1.90;;;;;;;18.18;85.56;95302.91;5011248;28;20298;-90
2021/08/04 16:50:39;;;;;;;1.60;1.50;;;;;;;18.11;84.56;95310.03;5031444;28;20289;-90
2021/08/04 17:07:16;;;;;;;2.38;1.60;;;;;;;18.05;83.28;95306.56;4890956;29;20270;-89
2021/08/04 17:09:42;;;;;;;1.50;1.40;;;;;;;17.97;86.98;95301.69;4951170;28;20225;-87
2021/08/04 17:12:39;;;;;;;;;;;;;;;;;;;;;
2021/08/04 17:19:13;;;;;;;22.05;19.77;;;;;;;17.95;84.79;95301.91;4830396;29;20209;-87
2021/08/04 17:22:23;;;;;;;8.63;6.97;;;;;;;17.95;86.18;95304.53;4855055;29;20213;-86
2021/08/04 17:25:17;;;;;;;2.72;2.33;;;;;;;17.99;86.60;95301.47;4856677;29;20214;-88
2021/08/04 17:27:46;;;;;;;1.83;1.73;;;;;;;17.99;85.20;95299.66;4988463;28;20233;-85
2021/08/04 17:30:34;;;;;;;2.28;2.00;;;;;;;17.97;85.40;95296.50;5033593;28;20194;-86
2021/08/04 17:33:36;;;;;;;2.05;1.73;;;;;;;17.88;86.85;95300.47;5028072;28;20217;-87
2021/08/04 17:56:50;;;;;;;2.40;1.90;;;;;;;17.66;88.21;95289.84;4882373;29;20744;-92
2021/08/04 18:00:02;;;;;;;2.58;2.38;;;;;;;17.61;88.79;95284.50;4919587;29;20874;-89
2021/08/04 18:16:41;;;;;;;2.30;2.10;;;;;;;17.71;89.80;95289.94;4965517;28;20893;-86
2021/08/04 18:19:43;;;;;;;2.20;2.00;;;;;;;17.70;90.05;95288.38;4980252;28;20210;-89
2021/08/04 18:22:11;;;;;;;2.10;1.90;;;;;;;17.69;90.11;95288.59;5018661;28;20222;-87
2021/08/04 18:24:51;;;;;;;2.58;2.38;;;;;;;17.71;89.27;95289.94;5029237;28;20685;-90
2021/08/04 18:27:17;;;;;;;2.53;2.30;;;;;;;17.65;91.36;95293.47;5029609;28;20214;-87
2021/08/04 18:33:10;;;;;;;2.45;2.25;;;;;;;17.59;92.27;95282.13;5022764;28;20210;-85
2021/08/04 18:39:03;;;;;;;3.47;2.00;;;;;;;17.50;92.36;95290.50;5021934;28;20229;-86
2021/08/04 18:55:08;;;;;;;2.50;2.10;;;;;;;17.04;93.44;95286.84;4929123;29;20349;-84
2021/08/04 18:57:45;;;;;;;2.42;2.22;;;;;;;17.05;93.83;95290.22;5010341;28;20230;-85
2021/08/04 19:00:12;;;;;;;2.15;1.95;;;;;;;17.14;93.65;95292.28;5033266;28;20182;-86
2021/08/04 19:02:55;;;;;;;2.55;2.05;;;;;;;17.18;92.81;95290.03;5031665;28;20731;-85
2021/08/04 19:05:29;;;;;;;2.50;2.00;;;;;;;17.14;93.69;95291.47;5010318;28;20290;-88
2021/08/04 19:07:57;;;;;;;2.50;2.28;;;;;;;17.18;93.22;95290.81;5016889;28;20849;-87
2021/08/04 19:10:28;;;;;;;3.28;2.97;;;;;;;17.09;93.69;95292.16;5030809;28;20201;-85
2021/08/04 19:12:55;;;;;;;3.65;2.90;;;;;;;17.03;94.87;95290.47;5022825;28;20202;-86
2021/08/04 19:15:25;;;;;;;3.85;2.97;;;;;;;16.99;96.98;95291.91;5028796;28;20611;-86
2021/08/04 19:17:51;;;;;;;3.20;2.65;;;;;;;17.09;95.91;95286.19;5028972;28;20229;-87
2021/08/04 19:20:28;;;;;;;3.20;2.42;;;;;;;17.17;95.11;95284.03;5030799;28;20201;-87
2021/08/04 19:23:03;;;;;;;2.50;2.30;;;;;;;17.22;94.44;95284.16;5030340;28;20228;-85
2021/08/04 19:25:33;;;;;;;2.90;2.58;;;;;;;17.20;94.66;95285.38;5029297;28;20200;-88
2021/08/04 19:28:00;;;;;;;3.80;2.50;;;;;;;17.20;94.79;95277.59;5030206;28;20222;-87
2021/08/04 19:30:27;;;;;;;4.70;2.70;;;;;;;17.15;94.70;95277.47;5030433;28;20206;-87
2021/08/04 19:32:54;;;;;;;3.42;2.78;;;;;;;17.12;94.81;95280.53;5029965;28;20233;-86
2021/08/04 19:35:21;;;;;;;2.70;2.50;;;;;;;17.05;95.35;95269.44;5029598;28;20237;-85
2021/08/04 19:37:48;;;;;;;2.70;2.50;;;;;;;17.05;96.03;95266.81;5029340;28;20226;-85
2021/08/04 19:40:16;;;;;;;2.67;2.47;;;;;;;17.10;95.09;95262.53;5029267;28;20209;-85
2021/08/04 19:42:50;;;;;;;3.00;2.70;;;;;;;17.18;94.86;95256.19;5029540;28;20855;-86
2021/08/04 19:45:17;;;;;;;3.45;2.70;;;;;;;17.25;94.26;95270.69;5029781;28;20572;-86
2021/08/04 19:47:45;;;;;;;3.10;2.20;;;;;;;17.27;94.54;95260.84;5029816;28;20316;-85
2021/08/04 19:50:14;;;;;;;2.95;2.65;;;;;;;17.27;95.94;95260.84;5029169;28;20252;-85
2021/08/04 19:52:41;;;;;;;4.28;2.88;;;;;;;17.35;94.51;95259.72;5029785;28;20285;-86
2021/08/04 19:55:08;;;;;;;2.83;2.50;;;;;;;17.36;94.56;95255.28;5028944;28;20202;-85
2021/08/04 19:57:34;;;;;;;3.08;2.78;;;;;;;17.29;93.81;95252.81;5029272;28;20226;-85
2021/08/04 20:00:02;;;;;;;3.00;2.70;;;;;;;17.30;93.52;95251.81;5029281;28;20221;-86
2021/08/04 20:02:29;;;;;;;2.95;2.75;;;;;;;17.32;93.82;95252.34;5030102;28;20209;-84
2021/08/04 20:04:55;;;;;;;2.90;2.65;;;;;;;17.28;93.92;95259.03;5028680;28;20209;-87
2021/08/04 20:07:21;;;;;;;2.60;2.40;;;;;;;17.25;94.26;95256.88;5029165;28;20221;-86
2021/08/04 20:09:48;;;;;;;3.13;2.60;;;;;;;17.26;95.43;95258.47;5024281;28;20202;-84
2021/08/04 20:12:14;;;;;;;2.50;2.30;;;;;;;17.31;95.18;95255.19;5024992;28;20194;-85
2021/08/04 20:14:41;;;;;;;2.92;2.67;;;;;;;17.37;94.83;95255.06;5024256;28;20218;-86
2021/08/04 20:17:13;;;;;;;2.60;2.40;;;;;;;17.41;94.10;95248.41;5019979;28;20226;-84
2021/08/04 20:19:39;;;;;;;3.20;2.90;;;;;;;17.35;93.99;95254.50;5008951;28;20271;-84
2021/08/04 20:22:06;;;;;;;3.85;3.35;;;;;;;17.32;95.10;95252.34;5008984;28;20646;-85
2021/08/04 20:24:32;;;;;;;2.65;2.45;;;;;;;17.26;95.49;95246.25;5009324;28;20231;-87
2021/08/04 20:26:59;;;;;;;3.13;2.83;;;;;;;17.27;94.37;95249.66;5009470;28;20234;-85
2021/08/04 20:29:26;;;;;;;4.15;3.20;;;;;;;17.25;95.76;95243.88;5010265;28;20207;-84
2021/08/04 20:31:52;;;;;;;3.85;2.92;;;;;;;17.27;94.84;95244.44;5001331;28;20208;-86
2021/08/04 20:34:20;;;;;;;3.30;3.00;;;;;;;17.24;94.74;95243.09;4989385;28;20203;-85
2021/08/04 20:36:47;;;;;;;4.05;3.10;;;;;;;17.20;95.23;95238.56;4989441;28;20223;-85
2021/08/04 20:39:14;;;;;;;3.67;2.83;;;;;;;17.16;94.56;95253.03;4989655;28;20204;-85
2021/08/04 20:41:41;;;;;;;3.03;2.83;;;;;;;17.16;94.70;95248.63;4989251;28;20210;-85
2021/08/04 20:44:07;;;;;;;3.55;3.10;;;;;;;17.06;95.92;95245.00;4988805;28;20224;-84
2021/08/04 20:46:34;;;;;;;4.45;3.13;;;;;;;16.97;95.80;95254.94;4988970;28;20234;-85
2021/08/04 20:49:00;;;;;;;2.95;2.60;;;;;;;17.00;96.46;95249.28;4997187;28;20195;-85
2021/08/04 20:51:28;;;;;;;4.68;3.33;;;;;;;16.90;95.77;95255.03;5008450;28;20210;-84
2021/08/04 20:53:54;;;;;;;3.47;2.72;;;;;;;16.91;96.35;95250.63;5008357;28;20202;-85
2021/08/04 20:56:21;;;;;;;3.45;2.78;;;;;;;16.91;96.40;95246.22;5009610;28;20967;-87
2021/08/04 20:58:50;;;;;;;3.63;2.60;;;;;;;17.01;95.71;95248.25;5012016;28;20198;-87
2021/08/04 21:01:17;;;;;;;2.80;2.50;;;;;;;17.06;94.97;95247.59;5012038;28;20213;-88
2021/08/04 21:03:44;;;;;;;3.10;2.30;;;;;;;17.08;94.96;95246.38;5011188;28;20249;-87
2021/08/04 21:06:10;;;;;;;2.75;2.35;;;;;;;17.06;95.25;95248.41;5010821;28;20719;-87
2021/08/04 21:08:39;;;;;;;2.40;2.08;;;;;;;17.05;94.26;95246.81;5012293;28;20219;-88
2021/08/04 21:11:05;;;;;;;2.33;2.10;;;;;;;17.05;93.18;95244.22;5011893;28;20206;-88
2021/08/04 21:13:32;;;;;;;2.45;2.20;;;;;;;17.12;92.61;95251.91;5011646;28;20199;-88
2021/08/04 21:15:58;;;;;;;2.50;1.92;;;;;;;17.17;92.61;95254.63;5012732;28;20199;-87
2021/08/04 21:18:25;;;;;;;2.10;1.90;;;;;;;17.16;92.57;95250.41;5031287;28;20202;-87
2021/08/04 21:20:51;;;;;;;2.10;1.90;;;;;;;17.12;91.65;95247.50;5031328;28;20228;-89
2021/08/04 21:23:18;;;;;;;2.15;1.95;;;;;;;17.03;91.80;95248.84;5021575;28;20222;-87
2021/08/04 21:25:45;;;;;;;2.78;1.88;;;;;;;17.01;91.88;95250.88;5011126;28;20206;-85
2021/08/04 21:28:12;;;;;;;1.77;1.67;;;;;;;17.04;91.98;95252.22;5011255;28;20203;-85
2021/08/04 21:30:41;;;;;;;2.35;2.15;;;;;;;17.06;91.30;95245.78;5011295;28;20211;-85
2021/08/04 21:33:07;;;;;;;2.20;2.00;;;;;;;17.07;90.78;95247.38;5011003;28;20202;-85
2021/08/04 21:35:34;;;;;;;2.28;2.05;;;;;;;17.10;90.51;95246.94;5011447;28;20210;-85
2021/08/04 21:38:00;;;;;;;2.42;2.03;;;;;;;17.10;90.83;95243.53;5011083;28;20226;-85
2021/08/04 21:40:27;;;;;;;2.17;2.08;;;;;;;17.04;92.04;95247.81;5010933;28;20203;-85
2021/08/04 21:42:57;;;;;;;2.47;2.17;;;;;;;17.04;92.43;95247.81;5010918;28;20285;-85
2021/08/04 21:45:23;;;;;;;4.40;2.10;;;;;;;17.07;93.36;95246.59;5010989;28;20203;-85
2021/08/04 21:47:53;;;;;;;2.42;2.13;;;;;;;17.13;92.53;95248.25;5010955;28;20288;-85
2021/08/04 21:50:22;;;;;;;2.30;2.10;;;;;;;17.19;92.15;95249.97;5011080;28;20211;-86
2021/08/04 21:52:48;;;;;;;2.40;2.20;;;;;;;17.21;91.59;95245.34;5010854;28;20206;-84
2021/08/04 21:55:15;;;;;;;2.53;2.33;;;;;;;17.17;92.01;95246.81;5011186;28;20329;-85
2021/08/04 21:57:44;;;;;;;2.00;1.85;;;;;;;17.21;92.62;95248.75;5010500;28;20229;-85
2021/08/04 22:00:14;;;;;;;2.03;1.83;;;;;;;17.15;93.47;95249.63;5010792;28;20202;-85
2021/08/04 22:02:41;;;;;;;3.88;2.40;;;;;;;17.16;92.79;95255.63;5027796;28;20210;-86
2021/08/04 22:05:09;;;;;;;3.65;2.10;;;;;;;17.11;92.67;95248.53;5029489;28;20716;-85
2021/08/04 22:07:39;;;;;;;2.45;2.25;;;;;;;17.03;93.46;95246.22;5030051;28;20233;-85
2021/08/04 22:10:07;;;;;;;2.60;2.40;;;;;;;17.04;93.27;95249.63;5030274;28;20206;-85
2021/08/04 22:12:33;;;;;;;2.40;2.10;;;;;;;17.04;93.42;95247.81;5029948;28;20202;-87
2021/08/04 22:15:00;;;;;;;2.50;2.30;;;;;;;17.13;92.32;95243.06;5030345;28;20198;-86
2021/08/04 22:17:27;;;;;;;2.90;2.58;;;;;;;17.13;93.53;95249.06;5043293;28;20294;-84
2021/08/04 22:19:56;;;;;;;2.30;2.10;;;;;;;17.18;93.09;95243.97;5049978;28;20197;-85
2021/08/04 22:22:23;;;;;;;2.33;2.13;;;;;;;17.26;92.69;95243.66;5047877;28;20208;-86
2021/08/04 22:24:57;;;;;;;2.65;2.10;;;;;;;17.19;93.21;95250.78;5029807;28;20226;-85
2021/08/04 22:27:26;;;;;;;2.65;2.45;;;;;;;17.15;92.22;95243.63;5029681;28;20301;-85
2021/08/04 22:29:53;;;;;;;2.40;2.20;;;;;;;17.17;92.57;95247.59;5030052;28;20720;-85
2021/08/04 22:32:21;;;;;;;2.30;2.10;;;;;;;17.14;93.45;95242.84;5029663;28;20206;-85
2021/08/04 22:34:49;;;;;;;2.50;2.30;;;;;;;17.22;92.86;95241.72;5029799;28;20237;-86
2021/08/04 22:37:18;;;;;;;2.80;2.28;;;;;;;17.27;92.47;95244.44;5029725;28;20218;-86
2021/08/04 22:39:44;;;;;;;3.25;2.40;;;;;;;17.26;92.82;95246.25;5029696;28;20202;-85
2021/08/04 22:42:11;;;;;;;2.35;2.15;;;;;;;17.25;93.31;95243.88;5029992;28;20780;-86
2021/08/04 22:44:37;;;;;;;2.40;2.20;;;;;;;17.26;94.03;95237.66;5029695;28;20218;-85
2021/08/04 22:47:04;;;;;;;2.15;1.98;;;;;;;17.22;94.48;95245.13;5029493;28;20226;-86
2021/08/04 22:49:30;;;;;;;2.30;2.10;;;;;;;17.21;93.28;95238.34;5029480;28;20688;-85
2021/08/04 22:51:58;;;;;;;2.95;2.25;;;;;;;17.22;93.36;95244.31;5029698;28;20202;-86
2021/08/04 22:54:25;;;;;;;2.35;2.10;;;;;;;17.24;93.16;95237.09;5033243;28;20205;-85
2021/08/04 22:56:51;;;;;;;2.17;1.98;;;;;;;17.28;92.80;95240.84;5034342;28;20268;-85
2021/08/04 22:59:17;;;;;;;3.00;2.40;;;;;;;17.27;92.66;95236.66;5034440;28;20956;-87
2021/08/04 23:01:44;;;;;;;2.65;1.98;;;;;;;17.29;92.03;95233.81;5033158;28;20210;-85
2021/08/04 23:04:11;;;;;;;3.00;2.13;;;;;;;17.24;92.66;95230.06;5033924;28;20237;-86
2021/08/04 23:06:39;;;;;;;2.25;2.05;;;;;;;17.22;92.46;95231.31;5052095;28;20779;-87
2021/08/04 23:09:07;;;;;;;2.30;2.10;;;;;;;17.24;92.56;95235.28;5053300;28;20212;-85
2021/08/04 23:11:34;;;;;;;3.05;2.22;;;;;;;17.24;92.55;95229.28;5052882;28;20202;-88
2021/08/04 23:14:01;;;;;;;3.67;2.10;;;;;;;17.24;92.06;95239.69;5053018;28;20197;-86
2021/08/04 23:16:27;;;;;;;2.17;1.98;;;;;;;17.24;92.62;95230.06;5053123;28;20245;-87
2021/08/04 23:18:54;;;;;;;3.17;2.15;;;;;;;17.26;92.85;95230.66;5053108;28;20562;-86
2021/08/04 23:21:20;;;;;;;2.40;2.10;;;;;;;17.25;93.34;95236.06;5042537;28;20579;-86
2021/08/04 23:23:47;;;;;;;3.50;2.20;;;;;;;17.25;93.22;95225.66;5026143;28;20232;-85
2021/08/04 23:26:15;;;;;;;2.30;2.10;;;;;;;17.27;92.87;95229.63;5033965;28;20292;-86
2021/08/04 23:28:41;;;;;;;2.13;1.95;;;;;;;17.32;92.44;95230.78;5033116;28;20202;-86
2021/08/04 23:31:07;;;;;;;3.53;2.20;;;;;;;17.29;92.00;95229.41;5032427;28;20205;-85
2021/08/04 23:33:35;;;;;;;2.20;2.00;;;;;;;17.29;92.71;95231.22;5031983;28;20924;-86
2021/08/04 23:36:01;;;;;;;2.53;2.33;;;;;;;17.30;92.24;95227.59;5032186;28;20209;-86
2021/08/04 23:38:28;;;;;;;2.15;1.95;;;;;;;17.33;92.18;95217.50;5033415;28;20213;-85
2021/08/04 23:48:14;;;;;;;2.00;1.90;;;;;;;17.25;94.32;95213.44;5032521;28;20209;-86
2021/08/04 23:54:11;;;;;;;2.25;2.05;;;;;;;17.20;93.82;95204.72;5033557;28;20246;-85
2021/08/04 23:56:37;;;;;;;2.63;2.25;;;;;;;17.19;94.33;95209.16;5029442;28;20225;-87
2021/08/04 23:59:03;;;;;;;2.72;2.53;;;;;;;17.22;94.06;95200.88;5032785;28;20255;-87
